Time;durP1;ratioP1;P1;durP2;ratioP2;P2;SDS_P1;SDS_P2;PMS_P1;PMS_P2;Temp;Humidity;BMP_temperature;BMP_pressure;BME280_temperature;BME280_humidity;BME280_pressure;Samples;Min_cycle;Max_cycle;Signal;HPM_P1;HPM_P2
2021/09/10 04:26:54;;;;;;;;;18.40;17.40;;;;;16.20;52.00;98948.22;6163003;28;97118;-63
2021/09/10 04:29:58;;;;;;;;;20.00;18.60;;;;;16.39;52.14;98976.69;6164108;28;96445;-62
2021/09/10 04:33:02;;;;;;;;;19.80;17.20;;;;;16.45;52.04;98979.22;6144348;28;97280;-62
2021/09/10 04:36:05;;;;;;;;;21.40;20.40;;;;;16.58;52.10;98982.59;6162979;28;96681;-63
2021/09/10 04:39:08;;;;;;;;;20.00;19.40;;;;;16.69;52.35;98987.09;6163025;28;96898;-63
2021/09/10 04:42:13;;;;;;;;;18.60;18.60;;;;;16.73;52.18;98988.22;6160140;28;97300;-62
2021/09/10 04:45:16;;;;;;;;;18.00;17.00;;;;;16.76;51.71;98982.25;6167177;28;97344;-63
2021/09/10 04:48:19;;;;;;;;;19.00;18.00;;;;;16.88;51.86;98993.78;6160807;28;98257;-62
2021/09/10 04:51:23;;;;;;;;;19.40;19.00;;;;;16.93;51.97;98979.38;6162862;28;97755;-61
2021/09/10 04:54:26;;;;;;;;;19.00;18.00;;;;;17.00;51.91;98990.88;6162536;28;97377;-63
2021/09/10 04:57:31;;;;;;;;;20.00;20.00;;;;;17.03;51.81;98988.47;6151556;28;96952;-61
2021/09/10 05:00:34;;;;;;;;;20.60;17.60;;;;;17.12;51.66;98995.06;6139058;28;98435;-62
2021/09/10 05:03:38;;;;;;;;;23.60;21.80;;;;;17.23;51.58;98990.50;6161198;28;98074;-63
2021/09/10 05:06:42;;;;;;;;;20.75;19.00;;;;;17.33;51.61;98996.84;6162524;28;96620;-61
2021/09/10 05:09:46;;;;;;;;;22.00;20.00;;;;;17.51;51.60;98992.03;6159866;28;96621;-62
2021/09/10 05:12:50;;;;;;;;;25.00;22.00;;;;;17.65;51.50;98993.22;6165120;28;97790;-62
2021/09/10 05:15:55;;;;;;;;;21.40;20.40;;;;;17.74;51.28;98988.91;6179947;28;97840;-62
2021/09/10 05:18:58;;;;;;;;;20.20;18.00;;;;;17.96;51.52;98999.66;6176813;28;97009;-61
2021/09/10 05:22:01;;;;;;;;;20.40;19.80;;;;;18.09;51.84;98999.16;6152240;28;97235;-61
2021/09/10 05:25:07;;;;;;;;;22.75;21.00;;;;;18.23;51.31;98991.31;6161682;28;96825;-62
2021/09/10 05:28:12;;;;;;;;;22.60;20.60;;;;;18.34;51.27;98990.22;6158630;28;96970;-62
2021/09/10 05:31:15;;;;;;;;;20.25;20.00;;;;;18.50;50.83;98995.47;6155253;28;97411;-62
2021/09/10 05:34:18;;;;;;;;;21.80;18.80;;;;;18.67;51.08;98988.97;6160314;28;97428;-61
2021/09/10 05:37:21;;;;;;;;;23.00;21.00;;;;;18.87;50.77;98988.94;6162780;28;96402;-60
2021/09/10 05:40:26;;;;;;;;;20.50;18.00;;;;;19.06;51.02;98992.75;6142605;28;98130;-61
2021/09/10 05:43:30;;;;;;;;;21.50;20.25;;;;;19.29;50.20;98994.97;6158670;28;97523;-61
2021/09/10 05:46:34;;;;;;;;;21.00;18.20;;;;;19.52;49.86;98998.22;6158447;28;97441;-62
2021/09/10 05:49:38;;;;;;;;;21.00;19.80;;;;;19.69;49.51;99004.19;6132671;28;97579;-60
2021/09/10 05:52:41;;;;;;;;;19.00;17.60;;;;;19.86;49.11;98999.22;6153343;28;97579;-62
2021/09/10 05:55:45;;;;;;;;;23.60;20.00;;;;;19.96;48.89;98992.88;6160381;28;97278;-60
2021/09/10 05:58:49;;;;;;;;;21.00;19.00;;;;;20.09;48.90;99012.25;6151636;28;98003;-64
2021/09/10 06:01:53;;;;;;;;;21.00;19.00;;;;;20.24;49.04;99008.59;6164113;28;96589;-64
2021/09/10 06:04:56;;;;;;;;;20.00;17.00;;;;;20.39;48.03;99015.97;6171819;28;96687;-63
2021/09/10 06:07:59;;;;;;;;;18.60;18.00;;;;;20.59;48.22;99019.41;6161679;28;97141;-62
2021/09/10 06:11:04;;;;;;;;;17.00;16.00;;;;;20.90;48.06;99011.78;6161557;28;97538;-62
2021/09/10 06:14:09;;;;;;;;;20.00;18.00;;;;;21.17;47.44;99011.31;6169398;28;97138;-61
2021/09/10 06:17:12;;;;;;;;;18.00;17.00;;;;;21.51;47.27;99011.25;6166058;28;96879;-62
2021/09/10 06:20:16;;;;;;;;;18.40;17.00;;;;;21.80;46.05;99014.78;6126362;28;99220;-62
2021/09/10 06:23:19;;;;;;;;;19.00;19.00;;;;;22.13;45.57;99015.81;6158809;28;96620;-62
2021/09/10 06:26:24;;;;;;;;;17.20;15.20;;;;;22.45;44.87;99017.84;6142187;28;98145;-62
2021/09/10 06:29:28;;;;;;;;;15.60;15.60;;;;;22.70;44.33;99019.41;6158126;28;97180;-62
2021/09/10 06:32:32;;;;;;;;;18.40;17.40;;;;;23.02;43.55;99011.22;6165030;28;98423;-62
2021/09/10 06:35:35;;;;;;;;;16.50;15.50;;;;;23.38;43.28;99025.22;6173107;28;97609;-61
2021/09/10 06:38:39;;;;;;;;;15.00;13.00;;;;;23.75;42.05;99021.50;6178963;28;97080;-62
2021/09/10 06:41:43;;;;;;;;;13.00;12.00;;;;;24.09;40.86;99024.69;6161554;28;96464;-61
2021/09/10 06:44:51;;;;;;;;;15.00;14.00;;;;;24.45;39.66;99027.53;6157857;28;97553;-64
2021/09/10 06:47:54;;;;;;;;;14.50;12.50;;;;;24.83;38.58;99024.47;6160091;28;96508;-62
2021/09/10 06:50:57;;;;;;;;;12.40;11.60;;;;;25.21;38.46;99027.75;6142002;28;96925;-62
2021/09/10 06:54:00;;;;;;;;;13.00;11.00;;;;;25.54;37.38;99031.84;6147202;28;98981;-63
2021/09/10 06:57:04;;;;;;;;;11.20;10.40;;;;;25.71;36.15;99036.66;6151801;28;97367;-62
2021/09/10 07:00:10;;;;;;;;;11.50;11.00;;;;;25.81;36.36;99030.84;6160407;28;96679;-61
2021/09/10 07:41:54;;;;;;;;;10.60;9.60;;;;;29.65;31.69;99058.22;7047904;22;98146;-63
2021/09/10 07:44:57;;;;;;;;;11.50;10.50;;;;;30.09;31.64;99051.84;6147370;28;96982;-63
2021/09/10 07:48:01;;;;;;;;;10.00;9.75;;;;;30.38;31.02;99041.63;6150236;28;98303;-64
2021/09/10 07:51:04;;;;;;;;;9.20;8.80;;;;;30.63;29.74;99043.25;6158493;28;98268;-64
2021/09/10 07:54:09;;;;;;;;;11.00;10.00;;;;;30.69;29.36;99064.09;6139552;28;97074;-63
2021/09/10 07:57:15;;;;;;;;;9.00;9.00;;;;;30.60;28.41;99057.03;6157763;28;97806;-62
2021/09/10 08:00:21;;;;;;;;;11.00;10.00;;;;;30.92;29.34;99068.03;6159262;28;96886;-63
2021/09/10 08:03:27;;;;;;;;;9.00;8.00;;;;;31.10;28.47;99060.22;6152866;28;97453;-63
2021/09/10 08:06:33;;;;;;;;;9.00;8.00;;;;;31.53;28.67;99067.81;6140301;28;96744;-64
2021/09/10 08:09:37;;;;;;;;;9.00;8.00;;;;;31.67;27.92;99070.19;6160728;28;97440;-62
2021/09/10 08:12:43;;;;;;;;;9.00;9.00;;;;;31.95;27.54;99059.00;6162041;28;97445;-62
2021/09/10 08:15:47;;;;;;;;;9.40;9.00;;;;;32.00;26.85;99067.09;6145012;28;97414;-61
2021/09/10 08:18:50;;;;;;;;;9.00;8.00;;;;;32.19;26.07;99065.25;6131830;28;97802;-63
2021/09/10 08:22:13;;;;;;;;;9.00;8.60;;;;;32.66;26.90;99056.84;6159749;28;96779;-63
2021/09/10 08:25:29;;;;;;;;;8.80;8.00;;;;;32.96;24.48;99061.88;6145052;28;97828;-64
2021/09/10 08:28:34;;;;;;;;;9.00;9.00;;;;;33.14;24.21;99065.84;6144345;28;97688;-62
2021/09/10 08:31:38;;;;;;;;;9.00;8.00;;;;;33.28;24.94;99051.41;6145106;28;98634;-63
2021/09/10 08:34:42;;;;;;;;;10.00;9.00;;;;;33.62;24.21;99063.66;6161557;28;97527;-63
2021/09/10 08:37:45;;;;;;;;;8.00;7.00;;;;;33.78;23.33;99058.78;6143650;28;99515;-62
2021/09/10 08:40:48;;;;;;;;;7.80;6.00;;;;;34.07;23.21;99057.31;6141195;28;97758;-62
2021/09/10 08:43:53;;;;;;;;;8.00;8.00;;;;;34.06;22.80;99062.13;6157933;28;97494;-62
2021/09/10 08:46:56;;;;;;;;;8.00;8.00;;;;;34.42;23.36;99055.13;6160416;28;96783;-62
2021/09/10 08:50:00;;;;;;;;;8.00;7.00;;;;;34.58;21.57;99052.16;6158142;28;96817;-63
2021/09/10 08:53:03;;;;;;;;;10.00;9.00;;;;;34.30;21.65;99056.16;6158495;28;98998;-62
2021/09/10 08:56:06;;;;;;;;;8.40;8.00;;;;;34.04;21.89;99044.88;6143668;28;97389;-63
2021/09/10 08:59:16;;;;;;;;;8.00;8.00;;;;;34.08;21.87;99045.75;6163971;28;97468;-61
2021/09/10 09:02:19;;;;;;;;;9.00;7.67;;;;;34.02;21.47;99050.03;6160953;28;98039;-62
2021/09/10 09:05:25;;;;;;;;;8.40;7.00;;;;;34.42;21.42;99052.31;6164143;28;96578;-63
2021/09/10 09:08:28;;;;;;;;;9.80;8.00;;;;;34.54;21.30;99056.91;6161569;28;97436;-61
2021/09/10 09:11:32;;;;;;;;;9.00;9.00;;;;;34.75;21.69;99051.63;6133158;28;96784;-63
2021/09/10 09:14:45;;;;;;;;;10.00;9.00;;;;;34.90;21.04;99047.03;6162510;28;97385;-61
2021/09/10 09:17:48;;;;;;;;;9.00;8.60;;;;;34.82;20.21;99037.75;6144031;28;97157;-63
2021/09/10 09:20:52;;;;;;;;;8.80;8.80;;;;;34.78;20.85;99034.09;6160906;28;97035;-63
2021/09/10 09:23:57;;;;;;;;;7.00;6.00;;;;;34.92;20.78;99041.88;6158627;28;97567;-62
2021/09/10 09:27:10;;;;;;;;;8.00;7.00;;;;;34.64;19.67;99039.47;6162986;28;97046;-63
2021/09/10 09:30:15;;;;;;;;;7.00;7.00;;;;;34.94;19.53;99031.91;6132539;28;97900;-62
2021/09/10 09:33:18;;;;;;;;;7.25;6.75;;;;;35.34;19.78;99030.41;6160112;28;97847;-63
2021/09/10 09:36:22;;;;;;;;;8.50;7.00;;;;;35.83;18.82;99032.97;6143536;28;97996;-62
2021/09/10 09:39:25;;;;;;;;;7.00;7.00;;;;;36.18;19.40;99024.09;6159548;28;97132;-63
2021/09/10 09:42:29;;;;;;;;;8.00;7.00;;;;;36.44;18.69;99021.06;6160737;28;96763;-63
2021/09/10 09:45:37;;;;;;;;;7.00;7.00;;;;;36.50;18.49;99024.31;6161234;28;97487;-64
2021/09/10 09:48:43;;;;;;;;;7.00;6.00;;;;;36.32;17.77;99019.38;6143131;28;97668;-64
2021/09/10 09:51:58;;;;;;;;;6.60;6.60;;;;;36.34;18.10;99019.00;6160172;28;96711;-64
2021/09/10 09:55:07;;;;;;;;;9.00;7.00;;;;;36.31;18.20;99019.78;6162014;28;96748;-63
2021/09/10 09:58:13;;;;;;;;;6.60;6.00;;;;;36.53;17.77;99023.53;6160525;28;97596;-64
2021/09/10 10:01:19;;;;;;;;;8.40;7.00;;;;;36.44;17.25;99010.66;6160450;28;97679;-63
2021/09/10 10:04:23;;;;;;;;;8.00;8.00;;;;;36.73;16.09;99020.09;6144822;28;97420;-62
2021/09/10 10:07:32;;;;;;;;;9.00;8.00;;;;;36.97;16.83;99012.97;6162302;28;97487;-62
2021/09/10 10:10:42;;;;;;;;;8.00;7.33;;;;;37.36;16.31;99007.53;6160728;28;96999;-64
2021/09/10 10:13:46;;;;;;;;;8.00;7.40;;;;;37.85;16.60;99008.84;6144112;28;97807;-62
2021/09/10 10:16:52;;;;;;;;;9.00;8.00;;;;;37.68;15.87;99010.44;6141682;28;98699;-62
2021/09/10 10:19:55;;;;;;;;;8.00;7.60;;;;;37.57;16.62;99004.00;6158076;28;96661;-62
2021/09/10 10:22:58;;;;;;;;;9.00;9.00;;;;;37.67;17.24;99006.03;6139437;28;96641;-61
2021/09/10 10:26:09;;;;;;;;;8.00;8.00;;;;;37.79;17.16;99011.25;6157065;28;97400;-62
2021/09/10 10:29:16;;;;;;;;;6.75;6.25;;;;;37.98;16.10;99002.41;6146895;28;96943;-62
2021/09/10 10:32:32;;;;;;;;;9.40;8.40;;;;;38.33;15.64;99004.44;6158988;28;97432;-61
2021/09/10 10:35:43;;;;;;;;;10.00;8.40;;;;;38.39;15.62;99004.84;6140780;28;98521;-60
2021/09/10 10:39:18;;;;;;;;;7.00;7.00;;;;;37.94;15.14;99001.63;6168844;28;96893;-61
2021/09/10 10:42:49;;;;;;;;;7.00;7.00;;;;;37.55;15.10;98998.75;6161750;28;97239;-61
2021/09/10 10:46:04;;;;;;;;;9.00;7.00;;;;;37.80;16.24;98995.97;6166744;28;98263;-60
2021/09/10 10:49:09;;;;;;;;;8.00;7.00;;;;;37.98;15.30;98998.78;6162290;28;96569;-61
2021/09/10 10:52:35;;;;;;;;;7.00;5.25;;;;;37.89;16.11;98992.75;6161196;28;96885;-61
2021/09/10 10:55:40;;;;;;;;;5.00;5.00;;;;;38.07;14.70;98999.25;6161698;28;97447;-62
2021/09/10 10:58:43;;;;;;;;;5.60;5.60;;;;;38.10;15.06;98990.78;6162192;28;96637;-61
2021/09/10 11:02:21;;;;;;;;;7.00;6.00;;;;;38.10;14.77;98992.81;6163964;28;97822;-60
2021/09/10 11:05:27;;;;;;;;;7.80;6.00;;;;;38.19;15.05;98979.13;6161221;28;97525;-62
2021/09/10 11:08:39;;;;;;;;;7.00;7.00;;;;;38.41;14.84;98980.69;6160970;28;98170;-62
2021/09/10 11:11:42;;;;;;;;;7.40;7.40;;;;;38.47;16.05;98978.28;6162989;28;97368;-60
2021/09/10 11:14:46;;;;;;;;;7.00;7.00;;;;;38.76;15.43;98979.00;6147600;28;97017;-61
2021/09/10 11:17:54;;;;;;;;;7.00;6.80;;;;;38.53;14.75;98974.66;6157680;28;96766;-61
2021/09/10 11:21:05;;;;;;;;;8.25;8.00;;;;;38.42;15.21;98965.38;6164892;28;96500;-60
2021/09/10 11:24:10;;;;;;;;;8.00;6.50;;;;;38.46;15.10;98966.22;6159032;28;97043;-61
2021/09/10 11:27:24;;;;;;;;;8.00;7.00;;;;;38.59;15.16;98963.78;6159745;28;98652;-61
2021/09/10 11:30:30;;;;;;;;;8.00;7.00;;;;;38.80;14.59;98954.44;6167640;28;97588;-60
2021/09/10 11:33:42;;;;;;;;;7.40;7.00;;;;;38.90;14.86;98953.63;6163816;28;96725;-62
2021/09/10 11:36:46;;;;;;;;;6.75;6.75;;;;;38.82;14.70;98949.19;6159705;28;97659;-60
2021/09/10 11:39:50;;;;;;;;;6.00;6.00;;;;;38.42;14.72;98940.03;6160368;28;96743;-61
2021/09/10 11:43:10;;;;;;;;;9.00;7.40;;;;;38.22;15.52;98940.91;6162472;28;97452;-61
2021/09/10 11:46:14;;;;;;;;;7.00;6.60;;;;;38.06;15.71;98930.88;6160590;28;97835;-61
2021/09/10 11:49:18;;;;;;;;;6.00;6.00;;;;;38.26;15.27;98936.88;6157568;28;97275;-60
2021/09/10 11:52:32;;;;;;;;;10.00;9.00;;;;;38.37;15.39;98931.19;6160326;28;97223;-62
2021/09/10 11:55:37;;;;;;;;;6.00;6.00;;;;;37.95;16.26;98935.69;6160055;28;98268;-61
2021/09/10 11:58:44;;;;;;;;;8.00;7.00;;;;;37.58;15.22;98935.28;6155236;28;97669;-62
2021/09/10 12:01:48;;;;;;;;;7.00;6.00;;;;;37.65;17.14;98915.56;6165600;28;96615;-61
2021/09/10 12:04:56;;;;;;;;;7.00;7.00;;;;;37.57;15.15;98922.41;6160269;28;97421;-60
2021/09/10 12:08:00;;;;;;;;;7.00;7.00;;;;;36.89;15.53;98918.63;6145821;28;97032;-62
2021/09/10 12:11:20;;;;;;;;;7.00;6.00;;;;;36.58;16.58;98911.63;6145317;28;98381;-61
2021/09/10 12:14:28;;;;;;;;;5.75;5.00;;;;;36.07;16.50;98908.13;6164542;28;97471;-61
2021/09/10 12:17:36;;;;;;;;;6.00;6.00;;;;;35.94;16.40;98902.81;6162788;28;97630;-62
2021/09/10 12:20:43;;;;;;;;;6.20;6.20;;;;;36.22;16.57;98901.41;6161516;28;96751;-61
2021/09/10 12:23:48;;;;;;;;;6.00;6.00;;;;;36.09;16.31;98902.91;6144487;28;97435;-61
2021/09/10 12:26:54;;;;;;;;;5.80;5.20;;;;;35.94;16.78;98894.38;6162059;28;97079;-62
2021/09/10 12:30:08;;;;;;;;;5.80;5.80;;;;;35.70;16.44;98897.81;6162652;28;96540;-60
2021/09/10 12:33:15;;;;;;;;;8.00;7.40;;;;;35.81;16.58;98884.69;6165369;28;98122;-60
2021/09/10 12:36:18;;;;;;;;;7.20;7.00;;;;;35.66;15.91;98887.75;6146989;28;97757;-61
2021/09/10 12:39:24;;;;;;;;;8.00;6.60;;;;;35.28;17.29;98881.41;6163586;28;97621;-60
2021/09/10 12:42:32;;;;;;;;;7.00;7.00;;;;;35.13;17.24;98886.03;6128770;28;99149;-62
2021/09/10 12:45:37;;;;;;;;;6.20;5.80;;;;;34.94;17.24;98879.81;6144551;28;97401;-60
2021/09/10 12:48:41;;;;;;;;;8.60;7.00;;;;;34.87;17.44;98874.13;6145770;28;96795;-61
2021/09/10 12:51:44;;;;;;;;;7.80;7.80;;;;;35.00;17.30;98873.47;6144904;28;99975;-61
2021/09/10 12:54:50;;;;;;;;;7.00;7.00;;;;;34.97;17.82;98867.84;6147155;28;96457;-60
2021/09/10 12:57:54;;;;;;;;;7.00;7.00;;;;;34.57;18.21;98869.34;6159197;28;97487;-60
2021/09/10 13:00:59;;;;;;;;;7.00;7.00;;;;;34.75;18.13;98864.00;6142881;28;96670;-60
2021/09/10 13:04:04;;;;;;;;;6.00;6.00;;;;;33.98;18.54;98836.56;6161938;28;97200;-62
2021/09/10 13:07:07;;;;;;;;;7.00;7.00;;;;;33.81;18.61;98862.31;6160743;28;97517;-62
2021/09/10 13:10:14;;;;;;;;;8.00;7.00;;;;;33.58;19.08;98864.28;6159623;28;96655;-60
2021/09/10 13:13:18;;;;;;;;;8.00;7.60;;;;;33.70;19.58;98847.34;6142810;28;96813;-62
2021/09/10 13:16:22;;;;;;;;;7.00;7.00;;;;;33.76;19.21;98855.03;6142715;28;97494;-61
2021/09/10 13:19:26;;;;;;;;;8.00;7.00;;;;;33.83;19.51;98851.53;6143493;28;97831;-60
2021/09/10 13:22:29;;;;;;;;;8.00;6.60;;;;;33.95;19.03;98845.72;6138200;28;96751;-61
2021/09/10 13:25:35;;;;;;;;;7.40;7.00;;;;;34.17;18.44;98844.81;6143401;28;97815;-60
2021/09/10 13:28:38;;;;;;;;;9.25;7.25;;;;;34.14;19.11;98845.59;6145405;28;96591;-61
2021/09/10 13:31:43;;;;;;;;;8.80;8.40;;;;;34.29;18.74;98844.63;6109517;28;98828;-59
2021/09/10 13:34:47;;;;;;;;;8.00;8.00;;;;;34.25;19.54;98849.38;6118750;28;97064;-61
2021/09/10 13:37:51;;;;;;;;;9.00;8.00;;;;;34.49;18.69;98855.66;6144948;28;97944;-60
2021/09/10 13:40:56;;;;;;;;;8.50;8.50;;;;;34.75;18.32;98853.59;6144104;28;97202;-59
2021/09/10 13:44:01;;;;;;;;;7.25;7.00;;;;;34.82;18.12;98849.25;6145077;28;96606;-60
2021/09/10 13:47:05;;;;;;;;;8.00;7.40;;;;;34.89;18.05;98841.75;6141124;28;97526;-60
2021/09/10 13:50:10;;;;;;;;;9.00;7.00;;;;;34.77;18.19;98848.44;6140272;28;97191;-60
2021/09/10 13:53:13;;;;;;;;;8.00;7.50;;;;;34.72;18.02;98837.56;6143207;28;97465;-61
2021/09/10 13:56:20;;;;;;;;;7.75;7.00;;;;;34.56;18.13;98834.16;6142101;28;98848;-60
2021/09/10 13:59:24;;;;;;;;;8.00;8.00;;;;;34.60;19.12;98835.00;6160451;28;97425;-62
2021/09/10 14:02:32;;;;;;;;;9.00;7.25;;;;;34.60;18.35;98840.59;6156554;28;97494;-61
2021/09/10 14:05:37;;;;;;;;;8.25;7.00;;;;;34.63;18.15;98839.84;6161245;28;96991;-62
2021/09/10 14:08:41;;;;;;;;;7.00;7.00;;;;;34.75;17.67;98847.19;6155841;28;96616;-62
2021/09/10 14:11:46;;;;;;;;;7.60;7.00;;;;;34.73;17.60;98846.78;6143971;28;97394;-62
2021/09/10 14:14:51;;;;;;;;;6.00;6.00;;;;;34.82;18.28;98833.28;6161898;28;97618;-62
2021/09/10 14:17:56;;;;;;;;;7.00;7.00;;;;;35.03;18.26;98830.69;6162989;28;97557;-62
2021/09/10 14:20:59;;;;;;;;;7.00;7.00;;;;;34.78;17.69;98835.22;6162357;28;97766;-62
2021/09/10 14:24:03;;;;;;;;;6.00;6.00;;;;;34.67;18.09;98840.72;6165836;28;96655;-62
2021/09/10 14:27:09;;;;;;;;;6.60;6.00;;;;;34.68;18.82;98833.13;6167601;28;97078;-61
2021/09/10 14:30:12;;;;;;;;;8.00;7.00;;;;;34.77;18.73;98842.81;6165598;28;97585;-62
2021/09/10 14:33:16;;;;;;;;;6.40;6.40;;;;;34.64;18.43;98843.44;6167771;28;96632;-62
2021/09/10 14:36:19;;;;;;;;;7.80;7.00;;;;;34.63;18.95;98823.03;6144652;28;97184;-61
2021/09/10 14:39:22;;;;;;;;;9.50;9.00;;;;;34.77;20.08;98844.81;6165540;28;96449;-62
2021/09/10 14:42:27;;;;;;;;;10.00;8.50;;;;;34.56;19.42;98842.53;6164570;28;97535;-63
2021/09/10 14:45:31;;;;;;;;;9.60;9.00;;;;;34.39;19.50;98840.34;6148218;28;97033;-63
2021/09/10 14:48:35;;;;;;;;;8.00;8.00;;;;;34.30;19.97;98837.03;6164384;28;97191;-62
2021/09/10 14:51:38;;;;;;;;;7.80;7.40;;;;;34.20;20.08;98830.13;6162603;28;97771;-63
2021/09/10 14:54:41;;;;;;;;;8.25;8.00;;;;;34.00;19.83;98837.00;6162791;28;97465;-62
2021/09/10 14:57:46;;;;;;;;;9.60;8.00;;;;;33.78;19.97;98835.88;6164939;28;96584;-63
2021/09/10 15:01:12;;;;;;;;;8.60;8.00;;;;;33.55;19.83;98837.09;6165551;28;97618;-61
2021/09/10 15:04:16;;;;;;;;;9.00;7.00;;;;;33.54;20.16;98833.47;6161868;28;97399;-63
2021/09/10 15:07:19;;;;;;;;;8.60;8.00;;;;;33.49;20.25;98834.59;6164527;28;96689;-63
2021/09/10 15:10:22;;;;;;;;;8.75;8.00;;;;;33.29;20.14;98844.25;6162879;28;97622;-62
2021/09/10 15:13:27;;;;;;;;;8.00;8.00;;;;;33.06;20.72;98832.25;6164453;28;96776;-63
2021/09/10 15:16:32;;;;;;;;;8.00;7.00;;;;;32.86;20.73;98831.47;6166071;28;96408;-61
2021/09/10 15:19:37;;;;;;;;;8.00;7.60;;;;;32.81;20.90;98831.78;6147633;28;97526;-61
2021/09/10 15:22:40;;;;;;;;;9.00;9.00;;;;;32.83;21.17;98828.63;6165073;28;96751;-62
2021/09/10 15:25:44;;;;;;;;;8.00;7.75;;;;;32.79;21.21;98830.56;6162558;28;97202;-61
2021/09/10 15:28:48;;;;;;;;;8.00;7.40;;;;;32.60;21.02;98828.53;6164146;28;96406;-62
2021/09/10 15:31:52;;;;;;;;;7.80;6.00;;;;;32.52;22.59;98830.41;6165371;28;96449;-62
2021/09/10 15:34:55;;;;;;;;;9.00;8.25;;;;;32.55;23.83;98832.44;6163167;28;97907;-61
2021/09/10 15:37:59;;;;;;;;;9.00;8.00;;;;;32.50;23.45;98831.97;6164427;28;96560;-62
2021/09/10 15:41:03;;;;;;;;;7.40;7.40;;;;;32.37;23.70;98825.69;6134560;28;97191;-62
2021/09/10 15:44:07;;;;;;;;;8.00;7.40;;;;;32.31;24.28;98832.75;6160444;28;96919;-63
2021/09/10 15:47:11;;;;;;;;;9.20;8.00;;;;;32.17;24.21;98819.31;6146644;28;96623;-62
2021/09/10 15:50:15;;;;;;;;;9.50;9.00;;;;;32.07;24.65;98821.84;6157903;28;96553;-62
2021/09/10 15:53:19;;;;;;;;;8.00;8.00;;;;;31.93;24.96;98822.34;6163196;28;97138;-61
2021/09/10 15:56:25;;;;;;;;;10.00;10.00;;;;;31.77;24.85;98815.97;6141258;28;98578;-62
2021/09/10 15:59:30;;;;;;;;;7.00;7.00;;;;;31.59;25.36;98810.00;6164368;28;97895;-63
2021/09/10 16:02:34;;;;;;;;;9.60;9.00;;;;;31.44;25.02;98807.22;6151630;28;97686;-62
2021/09/10 16:05:38;;;;;;;;;7.00;7.00;;;;;31.27;25.61;98806.44;6159916;28;96959;-62
2021/09/10 16:08:41;;;;;;;;;9.00;9.00;;;;;31.20;26.24;98802.66;6164676;28;98133;-61
2021/09/10 16:11:44;;;;;;;;;9.00;9.00;;;;;31.06;27.13;98805.91;6145298;28;96763;-62
2021/09/10 16:14:49;;;;;;;;;10.00;9.00;;;;;30.94;27.39;98797.59;6163328;28;97166;-63
2021/09/10 16:17:53;;;;;;;;;8.50;8.25;;;;;30.82;29.45;98809.63;6163986;28;96588;-61
2021/09/10 16:20:57;;;;;;;;;9.00;9.00;;;;;30.66;28.44;98808.78;6163884;28;97478;-62
2021/09/10 16:24:00;;;;;;;;;9.50;9.50;;;;;30.46;29.17;98812.59;6159326;28;96762;-60
2021/09/10 16:27:03;;;;;;;;;11.00;10.00;;;;;30.29;29.60;98802.56;6144882;28;98445;-63
2021/09/10 16:30:11;;;;;;;;;13.00;13.00;;;;;30.10;29.81;98799.63;6162840;28;97237;-63
2021/09/10 16:33:14;;;;;;;;;10.00;10.00;;;;;29.98;30.60;98805.22;6161224;28;97497;-61
2021/09/10 16:36:17;;;;;;;;;11.00;10.00;;;;;29.86;31.27;98805.22;6162463;28;97518;-62
2021/09/10 16:39:21;;;;;;;;;9.75;9.25;;;;;29.68;31.87;98802.69;6162450;28;97503;-63
2021/09/10 16:42:24;;;;;;;;;11.40;11.00;;;;;29.53;32.12;98800.63;6148607;28;97777;-62
2021/09/10 16:45:29;;;;;;;;;11.60;11.00;;;;;29.23;33.06;98788.91;6139656;28;97489;-59
2021/09/10 16:48:33;;;;;;;;;11.50;11.00;;;;;29.15;33.14;98806.50;6139454;28;96414;-60
2021/09/10 16:51:37;;;;;;;;;11.00;11.00;;;;;28.98;33.89;98800.38;6138604;28;96685;-61
2021/09/10 16:54:41;;;;;;;;;11.60;11.00;;;;;28.76;34.14;98807.94;6152345;28;96518;-61
2021/09/10 16:57:44;;;;;;;;;13.00;13.00;;;;;28.62;34.79;98821.28;6138013;28;99177;-62
2021/09/10 17:00:49;;;;;;;;;12.00;12.00;;;;;28.43;35.55;98815.44;6124508;28;97312;-61
2021/09/10 17:03:53;;;;;;;;;16.20;14.20;;;;;28.23;35.81;98817.09;6121159;28;97067;-61
2021/09/10 17:06:58;;;;;;;;;19.00;16.00;;;;;28.04;35.81;98821.47;6138064;28;96764;-62
2021/09/10 17:10:02;;;;;;;;;14.25;14.00;;;;;27.80;35.79;98817.41;6138375;28;97344;-61
2021/09/10 17:13:06;;;;;;;;;13.25;12.00;;;;;27.63;35.91;98811.16;6124353;28;98090;-60
2021/09/10 17:16:10;;;;;;;;;13.25;12.25;;;;;27.48;36.37;98813.31;6131179;28;97500;-60
2021/09/10 17:19:14;;;;;;;;;15.33;14.00;;;;;27.36;36.75;98812.44;6120582;28;99626;-61
2021/09/10 17:22:17;;;;;;;;;13.20;13.20;;;;;27.23;37.27;98819.00;6118413;28;97262;-62
2021/09/10 17:25:20;;;;;;;;;15.00;14.00;;;;;26.98;36.44;98837.31;6137360;28;97537;-60
2021/09/10 17:28:24;;;;;;;;;15.40;14.40;;;;;26.94;37.42;98833.59;6147496;28;97576;-62
2021/09/10 17:31:29;;;;;;;;;14.25;14.00;;;;;26.76;37.47;98834.75;6120291;28;99560;-60
2021/09/10 17:34:34;;;;;;;;;14.00;13.00;;;;;26.63;37.95;98837.38;6147825;28;96987;-61
2021/09/10 17:37:37;;;;;;;;;16.00;15.00;;;;;26.51;38.53;98836.44;6121596;28;96692;-61
2021/09/10 17:40:41;;;;;;;;;16.25;15.25;;;;;26.35;38.91;98832.53;6143781;28;97044;-62
2021/09/10 17:43:44;;;;;;;;;15.80;14.00;;;;;26.28;39.49;98844.94;6135716;28;97835;-62
2021/09/10 17:46:49;;;;;;;;;18.40;16.00;;;;;26.16;39.61;98841.13;6137272;28;96893;-60
2021/09/10 17:49:52;;;;;;;;;14.60;14.00;;;;;26.05;40.21;98846.16;6117287;28;96759;-62
2021/09/10 17:52:55;;;;;;;;;14.00;13.25;;;;;25.98;40.04;98850.56;6137267;28;96789;-62
2021/09/10 17:55:59;;;;;;;;;18.00;17.00;;;;;25.91;39.37;98852.97;6139751;28;97661;-59
2021/09/10 17:59:02;;;;;;;;;23.25;19.50;;;;;25.77;38.46;98851.19;6137118;28;97495;-62
2021/09/10 18:02:07;;;;;;;;;17.75;17.00;;;;;25.81;38.01;98856.84;6120127;28;96827;-63
2021/09/10 18:05:11;;;;;;;;;20.00;19.00;;;;;25.73;39.30;98857.66;6129033;28;97676;-63
2021/09/10 18:08:18;;;;;;;;;20.40;19.40;;;;;25.67;39.33;98859.75;6120775;28;99623;-61
2021/09/10 18:11:21;;;;;;;;;22.00;20.00;;;;;25.63;39.30;98857.97;6138551;28;97027;-62
2021/09/10 18:14:24;;;;;;;;;22.20;20.00;;;;;25.61;39.11;98863.81;6149785;28;96921;-63
2021/09/10 18:17:29;;;;;;;;;22.00;20.00;;;;;25.54;39.64;98866.19;6136655;28;97441;-63
2021/09/10 18:20:33;;;;;;;;;22.00;20.75;;;;;25.51;38.44;98863.28;6144515;28;96520;-61
2021/09/10 18:23:36;;;;;;;;;20.60;19.00;;;;;25.48;39.02;98858.38;6140694;28;97040;-62
2021/09/10 18:26:40;;;;;;;;;22.00;19.00;;;;;25.42;38.78;98877.84;6119172;28;97296;-61
2021/09/10 18:29:43;;;;;;;;;21.60;18.60;;;;;25.32;38.25;98863.50;6131854;28;97437;-63
2021/09/10 18:32:47;;;;;;;;;23.40;21.00;;;;;25.31;38.70;98881.22;6136137;28;98217;-63
2021/09/10 18:35:51;;;;;;;;;34.50;31.50;;;;;25.26;38.71;98878.59;6139369;28;96614;-63
2021/09/10 18:38:54;;;;;;;;;40.40;34.00;;;;;25.16;39.22;98876.13;6135827;28;96672;-62
2021/09/10 18:41:58;;;;;;;;;43.00;36.00;;;;;25.11;39.24;98884.53;6143484;28;96674;-63
2021/09/10 18:45:01;;;;;;;;;26.00;23.00;;;;;24.99;39.12;98885.09;6137913;28;97460;-63
2021/09/10 18:48:06;;;;;;;;;25.40;24.00;;;;;24.86;39.57;98892.31;6136891;28;96438;-63
2021/09/10 18:51:09;;;;;;;;;29.20;28.00;;;;;24.77;40.43;98898.91;6141277;28;98687;-61
2021/09/10 18:54:12;;;;;;;;;44.40;35.80;;;;;24.67;40.63;98893.66;6137933;28;97499;-62
2021/09/10 18:57:16;;;;;;;;;27.00;25.00;;;;;24.59;40.54;98893.25;6119829;28;96647;-61
2021/09/10 19:00:20;;;;;;;;;23.00;22.00;;;;;24.51;40.36;98890.44;6118278;28;97391;-62
2021/09/10 19:03:24;;;;;;;;;25.00;23.00;;;;;24.46;40.51;98891.38;6127338;28;96606;-61
2021/09/10 19:06:28;;;;;;;;;25.80;23.00;;;;;24.34;41.07;98887.53;6104844;28;97296;-61
2021/09/10 19:09:33;;;;;;;;;24.00;21.60;;;;;24.26;41.04;98885.53;6120281;28;97539;-62
2021/09/10 19:12:37;;;;;;;;;20.50;20.50;;;;;24.10;41.80;98880.34;6121761;28;96859;-62
2021/09/10 19:15:41;;;;;;;;;24.00;22.00;;;;;24.12;43.03;98885.56;6117092;28;97244;-62
2021/09/10 19:19:06;;;;;;;;;24.20;21.80;;;;;24.03;43.22;98885.47;6125285;28;96781;-62
2021/09/10 19:22:10;;;;;;;;;24.40;23.40;;;;;23.93;43.83;98891.22;6140656;28;96708;-62
2021/09/10 19:25:14;;;;;;;;;22.67;19.67;;;;;23.79;44.82;98886.84;6149991;28;97347;-62
2021/09/10 19:28:18;;;;;;;;;25.33;21.00;;;;;23.57;45.44;98893.88;6141293;28;96835;-62